Time;durP1;ratioP1;P1;durP2;ratioP2;P2;SDS_P1;SDS_P2;PMS_P1;PMS_P2;Temp;Humidity;BMP_temperature;BMP_pressure;BME280_temperature;BME280_humidity;BME280_pressure;Samples;Min_cycle;Max_cycle;Signal;HPM_P1;HPM_P2
2022/07/09 00:02:24;;;;;;;;;;;;;;;;;;5113151;28;20374;-79
2022/07/09 00:04:49;;;;;;;;;;;;;;;;;;5094854;28;19923;-79
2022/07/09 00:07:15;;;;;;;;;;;;;;;;;;5112374;28;19912;-79
2022/07/09 00:09:40;;;;;;;;;;;;;;;;;;5095725;28;19922;-79
2022/07/09 00:12:05;;;;;;;;;;;;;;;;;;5113574;28;19920;-79
2022/07/09 00:14:31;;;;;;;;;;;;;;;;;;5111832;28;19951;-79
2022/07/09 00:16:56;;;;;;;;;;;;;;;;;;5113342;28;20414;-79
2022/07/09 00:19:21;;;;;;;;;;;;;;;;;;5094719;28;19920;-79
2022/07/09 00:21:46;;;;;;;;;;;;;;;;;;5112056;28;19922;-78
2022/07/09 00:24:11;;;;;;;;;;;;;;;;;;5112657;28;19916;-80
2022/07/09 00:26:37;;;;;;;;;;;;;;;;;;5113950;28;19915;-79
2022/07/09 00:29:02;;;;;;;;;;;;;;;;;;5112365;28;19919;-79
2022/07/09 00:31:27;;;;;;;;;;;;;;;;;;5113397;28;19916;-79
2022/07/09 00:33:53;;;;;;;;;;;;;;;;;;5111463;28;19939;-79
2022/07/09 00:36:19;;;;;;;;;;;;;;;;;;5111714;28;19911;-79
2022/07/09 00:38:44;;;;;;;;;;;;;;;;;;5111563;28;19916;-79
2022/07/09 00:41:09;;;;;;;;;;;;;;;;;;5112793;28;20007;-80
2022/07/09 00:43:34;;;;;;;;;;;;;;;;;;5094903;28;19947;-77
2022/07/09 00:46:00;;;;;;;;;;;;;;;;;;5112771;28;19927;-78
2022/07/09 00:48:25;;;;;;;;;;;;;;;;;;5111511;28;19912;-78
2022/07/09 00:50:50;;;;;;;;;;;;;;;;;;5112787;28;20430;-78
2022/07/09 00:53:16;;;;;;;;;;;;;;;;;;5091939;28;19927;-78
2022/07/09 00:55:44;;;;;;;;;;;;;;;;;;5111810;28;20361;-77
2022/07/09 00:58:09;;;;;;;;;;;;;;;;;;5111509;28;19984;-77
2022/07/09 01:00:35;;;;;;;;;;;;;;;;;;5111643;28;20276;-78
2022/07/09 01:03:00;;;;;;;;;;;;;;;;;;5114775;28;20383;-78
2022/07/09 01:05:25;;;;;;;;;;;;;;;;;;5112279;28;19940;-78
2022/07/09 01:07:51;;;;;;;;;;;;;;;;;;5112307;28;19912;-78
2022/07/09 01:10:17;;;;;;;;;;;;;;;;;;5112554;28;19923;-77
2022/07/09 01:12:43;;;;;;;;;;;;;;;;;;5113210;28;20297;-77
2022/07/09 01:15:08;;;;;;;;;;;;;;;;;;5114393;28;19995;-77
2022/07/09 01:17:40;;;;;;;;;;;;;;;;;;5114707;28;20011;-78
2022/07/09 01:20:06;;;;;;;;;;;;;;;;;;5115038;28;19916;-79
2022/07/09 01:22:32;;;;;;;;;;;;;;;;;;5115084;28;20446;-80
2022/07/09 01:24:57;;;;;;;;;;;;;;;;;;5116175;28;19919;-77
2022/07/09 01:27:22;;;;;;;;;;;;;;;;;;5114733;28;19915;-78
2022/07/09 01:29:49;;;;;;;;;;;;;;;;;;5116197;28;20059;-79
2022/07/09 01:32:15;;;;;;;;;;;;;;;;;;5114447;28;19915;-78
2022/07/09 01:34:40;;;;;;;;;;;;;;;;;;5114498;28;20014;-78
2022/07/09 01:37:06;;;;;;;;;;;;;;;;;;5097427;28;19922;-78
2022/07/09 01:39:31;;;;;;;;;;;;;;;;;;5115645;28;19916;-78
2022/07/09 01:41:56;;;;;;;;;;;;;;;;;;5114628;28;19915;-78
2022/07/09 01:44:21;;;;;;;;;;;;;;;;;;5097135;28;19919;-78
2022/07/09 01:46:47;;;;;;;;;;;;;;;;;;5114776;28;19916;-78
2022/07/09 01:49:12;;;;;;;;;;;;;;;;;;5114316;28;19916;-78
2022/07/09 01:51:37;;;;;;;;;;;;;;;;;;5114291;28;19923;-78
2022/07/09 01:54:03;;;;;;;;;;;;;;;;;;5115698;28;19923;-78
2022/07/09 01:56:28;;;;;;;;;;;;;;;;;;5114038;28;19912;-78
2022/07/09 01:58:53;;;;;;;;;;;;;;;;;;5114510;28;19964;-78
2022/07/09 02:01:20;;;;;;;;;;;;;;;;;;5115190;28;19916;-78
2022/07/09 02:03:45;;;;;;;;;;;;;;;;;;5115785;28;19916;-78
2022/07/09 02:06:10;;;;;;;;;;;;;;;;;;5113925;28;20000;-78
2022/07/09 02:08:36;;;;;;;;;;;;;;;;;;5096760;28;20370;-78
2022/07/09 02:11:02;;;;;;;;;;;;;;;;;;5114990;28;19924;-79
2022/07/09 02:13:27;;;;;;;;;;;;;;;;;;5113738;28;19920;-79
2022/07/09 02:15:53;;;;;;;;;;;;;;;;;;5115250;28;20018;-79
2022/07/09 02:18:18;;;;;;;;;;;;;;;;;;5113867;28;19977;-79
2022/07/09 02:20:43;;;;;;;;;;;;;;;;;;5114203;28;19919;-79
2022/07/09 02:23:08;;;;;;;;;;;;;;;;;;5113630;28;20362;-79
2022/07/09 02:25:34;;;;;;;;;;;;;;;;;;5114954;28;19938;-79
2022/07/09 02:27:59;;;;;;;;;;;;;;;;;;5096449;28;20143;-80
2022/07/09 02:30:24;;;;;;;;;;;;;;;;;;5114121;28;19930;-79
2022/07/09 02:32:49;;;;;;;;;;;;;;;;;;5114807;28;19919;-79
2022/07/09 02:35:15;;;;;;;;;;;;;;;;;;5114895;28;19915;-79
2022/07/09 02:37:41;;;;;;;;;;;;;;;;;;5096145;28;19919;-79
2022/07/09 02:40:07;;;;;;;;;;;;;;;;;;5114740;28;19939;-78
2022/07/09 02:42:32;;;;;;;;;;;;;;;;;;5113243;28;20348;-80
2022/07/09 02:44:57;;;;;;;;;;;;;;;;;;5114609;28;20311;-78
2022/07/09 02:47:23;;;;;;;;;;;;;;;;;;5113586;28;19916;-79
2022/07/09 02:49:48;;;;;;;;;;;;;;;;;;5112936;28;19919;-77
2022/07/09 02:52:13;;;;;;;;;;;;;;;;;;5112885;28;19941;-79
2022/07/09 02:54:38;;;;;;;;;;;;;;;;;;5114490;28;19945;-79
2022/07/09 02:57:04;;;;;;;;;;;;;;;;;;5113443;28;19947;-79
2022/07/09 02:59:29;;;;;;;;;;;;;;;;;;5096510;28;19976;-78
2022/07/09 03:01:54;;;;;;;;;;;;;;;;;;5114127;28;20314;-79
2022/07/09 03:04:20;;;;;;;;;;;;;;;;;;5112665;28;20380;-78
2022/07/09 03:06:45;;;;;;;;;;;;;;;;;;5112552;28;19984;-78
2022/07/09 03:09:10;;;;;;;;;;;;;;;;;;5112583;28;19946;-77
2022/07/09 03:11:35;;;;;;;;;;;;;;;;;;5114205;28;20124;-77
2022/07/09 03:14:01;;;;;;;;;;;;;;;;;;5113101;28;19923;-79
2022/07/09 03:16:26;;;;;;;;;;;;;;;;;;5112625;28;19912;-79
2022/07/09 03:18:51;;;;;;;;;;;;;;;;;;5112834;28;19926;-79
2022/07/09 03:21:17;;;;;;;;;;;;;;;;;;5113871;28;19950;-78
2022/07/09 03:23:42;;;;;;;;;;;;;;;;;;5113676;28;19916;-78
2022/07/09 03:26:07;;;;;;;;;;;;;;;;;;5113532;28;19916;-78
2022/07/09 03:28:33;;;;;;;;;;;;;;;;;;5112325;28;20022;-79
2022/07/09 03:30:58;;;;;;;;;;;;;;;;;;5112415;28;19923;-79
2022/07/09 03:33:24;;;;;;;;;;;;;;;;;;5112140;28;20015;-79
2022/07/09 03:35:49;;;;;;;;;;;;;;;;;;5112217;28;19943;-77
2022/07/09 03:38:14;;;;;;;;;;;;;;;;;;5111720;28;19912;-79
2022/07/09 03:40:40;;;;;;;;;;;;;;;;;;5113604;28;20234;-79
2022/07/09 03:43:05;;;;;;;;;;;;;;;;;;5111898;28;19915;-79
2022/07/09 03:45:30;;;;;;;;;;;;;;;;;;5113495;28;19923;-79
2022/07/09 03:47:55;;;;;;;;;;;;;;;;;;5112310;28;19912;-79
2022/07/09 03:50:21;;;;;;;;;;;;;;;;;;5113510;28;19930;-79
2022/07/09 03:52:46;;;;;;;;;;;;;;;;;;5113174;28;19928;-79
2022/07/09 03:55:11;;;;;;;;;;;;;;;;;;5113322;28;19990;-78
2022/07/09 03:57:37;;;;;;;;;;;;;;;;;;5112051;28;19916;-78
2022/07/09 04:00:03;;;;;;;;;;;;;;;;;;5113460;28;20010;-79
2022/07/09 04:02:28;;;;;;;;;;;;;;;;;;5113327;28;19938;-79
2022/07/09 04:04:56;;;;;;;;;;;;;;;;;;5111656;28;20390;-79
2022/07/09 04:07:22;;;;;;;;;;;;;;;;;;5112912;28;19916;-79
2022/07/09 04:09:47;;;;;;;;;;;;;;;;;;5111820;28;19996;-79
2022/07/09 04:12:12;;;;;;;;;;;;;;;;;;5111606;28;19920;-80
2022/07/09 04:14:37;;;;;;;;;;;;;;;;;;5111739;28;19916;-79
2022/07/09 04:17:03;;;;;;;;;;;;;;;;;;5111756;28;19915;-79
2022/07/09 04:19:28;;;;;;;;;;;;;;;;;;5113157;28;19920;-79
2022/07/09 04:21:53;;;;;;;;;;;;;;;;;;5111568;28;20388;-79
2022/07/09 04:24:18;;;;;;;;;;;;;;;;;;5113106;28;19916;-80
2022/07/09 04:26:44;;;;;;;;;;;;;;;;;;5113258;28;19923;-79
2022/07/09 04:29:10;;;;;;;;;;;;;;;;;;5112987;28;20045;-79
2022/07/09 04:31:35;;;;;;;;;;;;;;;;;;5111538;28;20399;-79
2022/07/09 04:34:00;;;;;;;;;;;;;;;;;;5113358;28;19923;-80
2022/07/09 04:36:27;;;;;;;;;;;;;;;;;;5112022;28;20344;-80
2022/07/09 04:38:53;;;;;;;;;;;;;;;;;;5111865;28;19995;-80
2022/07/09 04:41:18;;;;;;;;;;;;;;;;;;5113079;28;19958;-80
2022/07/09 04:43:43;;;;;;;;;;;;;;;;;;5111696;28;20379;-79
2022/07/09 04:46:08;;;;;;;;;;;;;;;;;;5113186;28;20450;-79
2022/07/09 04:48:34;;;;;;;;;;;;;;;;;;5113735;28;20356;-79
2022/07/09 04:50:59;;;;;;;;;;;;;;;;;;5115647;28;19931;-79
2022/07/09 04:53:24;;;;;;;;;;;;;;;;;;5116935;28;19965;-79
2022/07/09 04:55:50;;;;;;;;;;;;;;;;;;5115618;28;20258;-78
2022/07/09 04:58:15;;;;;;;;;;;;;;;;;;5117194;28;19915;-79
2022/07/09 05:00:40;;;;;;;;;;;;;;;;;;5116636;28;19916;-79
2022/07/09 05:03:06;;;;;;;;;;;;;;;;;;5117003;28;19939;-79
2022/07/09 05:05:31;;;;;;;;;;;;;;;;;;5115512;28;19916;-79
2022/07/09 05:07:57;;;;;;;;;;;;;;;;;;5115475;28;19912;-79
2022/07/09 05:10:22;;;;;;;;;;;;;;;;;;5115219;28;19942;-79
2022/07/09 05:12:47;;;;;;;;;;;;;;;;;;5116712;28;20423;-79
2022/07/09 05:15:13;;;;;;;;;;;;;;;;;;5116484;28;19923;-79
2022/07/09 05:17:38;;;;;;;;;;;;;;;;;;5117154;28;19939;-79
2022/07/09 05:20:03;;;;;;;;;;;;;;;;;;5099866;28;20369;-78
2022/07/09 05:22:30;;;;;;;;;;;;;;;;;;5115881;28;20354;-79
2022/07/09 05:24:55;;;;;;;;;;;;;;;;;;5117279;28;19934;-79
2022/07/09 05:27:21;;;;;;;;;;;;;;;;;;5117660;28;20346;-79
2022/07/09 05:29:46;;;;;;;;;;;;;;;;;;5116371;28;20312;-78
2022/07/09 05:32:11;;;;;;;;;;;;;;;;;;5117653;28;19919;-78
2022/07/09 05:34:37;;;;;;;;;;;;;;;;;;5115195;28;19923;-79
2022/07/09 05:37:02;;;;;;;;;;;;;;;;;;5116469;28;19942;-78
2022/07/09 05:39:27;;;;;;;;;;;;;;;;;;5115380;28;20010;-80
2022/07/09 05:41:53;;;;;;;;;;;;;;;;;;5115190;28;20014;-80
2022/07/09 05:44:18;;;;;;;;;;;;;;;;;;5114643;28;20285;-78
2022/07/09 05:46:43;;;;;;;;;;;;;;;;;;5115538;28;19916;-79
2022/07/09 05:49:08;;;;;;;;;;;;;;;;;;5116118;28;20397;-80
2022/07/09 05:51:34;;;;;;;;;;;;;;;;;;5117233;28;19919;-80
2022/07/09 05:53:59;;;;;;;;;;;;;;;;;;5117230;28;19955;-80
2022/07/09 05:56:24;;;;;;;;;;;;;;;;;;5116383;28;19916;-80
2022/07/09 05:58:50;;;;;;;;;;;;;;;;;;5115270;28;20382;-80
2022/07/09 06:01:15;;;;;;;;;;;;;;;;;;5114524;28;19983;-82
2022/07/09 06:03:40;;;;;;;;;;;;;;;;;;5114377;28;19920;-78
2022/07/09 06:06:06;;;;;;;;;;;;;;;;;;5115009;28;19912;-81
2022/07/09 06:08:32;;;;;;;;;;;;;;;;;;5116530;28;19920;-79
2022/07/09 06:10:57;;;;;;;;;;;;;;;;;;5115959;28;19924;-81
2022/07/09 06:13:22;;;;;;;;;;;;;;;;;;5116381;28;20288;-82
2022/07/09 06:15:47;;;;;;;;;;;;;;;;;;5116620;28;20425;-81
2022/07/09 06:18:13;;;;;;;;;;;;;;;;;;5115987;28;19938;-82
2022/07/09 06:20:38;;;;;;;;;;;;;;;;;;5115422;28;20293;-80
2022/07/09 06:23:04;;;;;;;;;;;;;;;;;;5114587;28;19916;-81
2022/07/09 06:25:30;;;;;;;;;;;;;;;;;;5116853;28;19912;-81
2022/07/09 06:27:55;;;;;;;;;;;;;;;;;;5115003;28;19937;-80
2022/07/09 06:30:20;;;;;;;;;;;;;;;;;;5114678;28;19921;-80
2022/07/09 06:32:45;;;;;;;;;;;;;;;;;;5114991;28;19985;-80
2022/07/09 06:35:11;;;;;;;;;;;;;;;;;;5116923;28;19916;-77
2022/07/09 06:37:36;;;;;;;;;;;;;;;;;;5115360;28;19919;-80
2022/07/09 06:40:01;;;;;;;;;;;;;;;;;;5116166;28;19916;-79
2022/07/09 06:42:27;;;;;;;;;;;;;;;;;;5114963;28;20318;-79
2022/07/09 06:44:52;;;;;;;;;;;;;;;;;;5114501;28;19916;-77
2022/07/09 06:47:17;;;;;;;;;;;;;;;;;;5115377;28;19923;-78
2022/07/09 06:49:43;;;;;;;;;;;;;;;;;;5115114;28;20277;-79
2022/07/09 06:52:08;;;;;;;;;;;;;;;;;;5114104;28;19927;-80
2022/07/09 06:54:34;;;;;;;;;;;;;;;;;;5116112;28;20323;-80
2022/07/09 06:57:03;;;;;;;;;;;;;;;;;;5113965;28;19912;-80
2022/07/09 06:59:28;;;;;;;;;;;;;;;;;;5096923;28;20366;-80
2022/07/09 07:01:56;;;;;;;;;;;;;;;;;;5114688;28;19916;-83
2022/07/09 07:04:21;;;;;;;;;;;;;;;;;;5097534;28;19912;-81
2022/07/09 07:06:48;;;;;;;;;;;;;;;;;;5113976;28;19935;-82
2022/07/09 07:09:18;;;;;;;;;;;;;;;;;;5114453;28;19918;-81
2022/07/09 07:11:43;;;;;;;;;;;;;;;;;;5097322;28;20006;-82
2022/07/09 07:14:08;;;;;;;;;;;;;;;;;;5115308;28;19954;-79
2022/07/09 07:16:33;;;;;;;;;;;;;;;;;;5115282;28;20024;-84
2022/07/09 07:18:59;;;;;;;;;;;;;;;;;;5115590;28;20322;-80
2022/07/09 07:21:24;;;;;;;;;;;;;;;;;;5115297;28;19915;-80
2022/07/09 07:23:49;;;;;;;;;;;;;;;;;;5113402;28;20394;-78
2022/07/09 07:26:14;;;;;;;;;;;;;;;;;;5114328;28;20015;-78
2022/07/09 07:28:40;;;;;;;;;;;;;;;;;;5096117;28;19930;-77
2022/07/09 07:31:05;;;;;;;;;;;;;;;;;;5114057;28;19935;-77
2022/07/09 07:33:30;;;;;;;;;;;;;;;;;;5114387;28;19916;-77
2022/07/09 07:35:55;;;;;;;;;;;;;;;;;;5114120;28;20399;-77
2022/07/09 07:38:22;;;;;;;;;;;;;;;;;;5114048;28;19920;-77
2022/07/09 07:40:47;;;;;;;;;;;;;;;;;;5112821;28;20282;-77
2022/07/09 07:43:12;;;;;;;;;;;;;;;;;;5114328;28;19916;-77
2022/07/09 07:45:38;;;;;;;;;;;;;;;;;;5114478;28;19915;-77
2022/07/09 07:48:03;;;;;;;;;;;;;;;;;;5112568;28;20370;-76
2022/07/09 07:50:29;;;;;;;;;;;;;;;;;;5114085;28;19919;-76
2022/07/09 07:52:54;;;;;;;;;;;;;;;;;;5112826;28;19970;-76
2022/07/09 07:55:19;;;;;;;;;;;;;;;;;;5112816;28;19916;-76
2022/07/09 07:57:45;;;;;;;;;;;;;;;;;;5112426;28;19933;-77
2022/07/09 08:00:10;;;;;;;;;;;;;;;;;;5114137;28;20041;-77
2022/07/09 08:02:35;;;;;;;;;;;;;;;;;;5114482;28;20350;-77
2022/07/09 08:05:01;;;;;;;;;;;;;;;;;;5112823;28;19916;-77
2022/07/09 08:07:26;;;;;;;;;;;;;;;;;;5112545;28;19937;-77
2022/07/09 08:09:52;;;;;;;;;;;;;;;;;;5095843;28;19916;-77
2022/07/09 08:12:17;;;;;;;;;;;;;;;;;;5114142;28;19943;-76
2022/07/09 08:14:42;;;;;;;;;;;;;;;;;;5114680;28;19954;-77
2022/07/09 08:17:07;;;;;;;;;;;;;;;;;;5113108;28;20289;-77
2022/07/09 08:19:33;;;;;;;;;;;;;;;;;;5113531;28;20055;-76
2022/07/09 08:21:58;;;;;;;;;;;;;;;;;;5095451;28;19912;-76
2022/07/09 08:24:23;;;;;;;;;;;;;;;;;;5117552;28;19916;-77
2022/07/09 08:26:48;;;;;;;;;;;;;;;;;;5118300;28;19915;-77
2022/07/09 08:29:14;;;;;;;;;;;;;;;;;;5116449;28;19915;-76
2022/07/09 08:31:39;;;;;;;;;;;;;;;;;;5116233;28;19915;-77
2022/07/09 08:34:04;;;;;;;;;;;;;;;;;;5117808;28;19916;-77
2022/07/09 08:36:29;;;;;;;;;;;;;;;;;;5116200;28;19915;-77
2022/07/09 08:38:55;;;;;;;;;;;;;;;;;;5116462;28;19980;-77
2022/07/09 08:41:20;;;;;;;;;;;;;;;;;;5117552;28;19917;-77
2022/07/09 08:43:48;;;;;;;;;;;;;;;;;;5116554;28;19927;-76
2022/07/09 08:46:14;;;;;;;;;;;;;;;;;;5099154;28;19918;-77
2022/07/09 08:48:39;;;;;;;;;;;;;;;;;;5116389;28;19915;-77
2022/07/09 08:51:04;;;;;;;;;;;;;;;;;;5117056;28;19968;-77
2022/07/09 08:53:30;;;;;;;;;;;;;;;;;;5115982;28;19923;-77
2022/07/09 08:55:55;;;;;;;;;;;;;;;;;;5116477;28;20056;-77
2022/07/09 08:58:21;;;;;;;;;;;;;;;;;;5117394;28;19945;-77
2022/07/09 09:00:47;;;;;;;;;;;;;;;;;;5116094;28;20337;-77
2022/07/09 09:03:13;;;;;;;;;;;;;;;;;;5099226;28;19919;-77
2022/07/09 09:05:38;;;;;;;;;;;;;;;;;;5117022;28;20302;-77
2022/07/09 09:08:16;;;;;;;;;;;;;;;;;;5099200;28;19912;-77
2022/07/09 09:10:44;;;;;;;;;;;;;;;;;;5117535;28;19916;-77
2022/07/09 09:13:13;;;;;;;;;;;;;;;;;;5116450;28;19919;-77
2022/07/09 09:15:38;;;;;;;;;;;;;;;;;;5099129;28;19915;-77
2022/07/09 09:18:03;;;;;;;;;;;;;;;;;;5116786;28;20323;-77
2022/07/09 09:20:28;;;;;;;;;;;;;;;;;;5117826;28;19915;-77
2022/07/09 09:22:59;;;;;;;;;;;;;;;;;;5117260;28;19919;-77
2022/07/09 09:25:24;;;;;;;;;;;;;;;;;;5115690;28;19912;-77
2022/07/09 09:27:56;;;;;;;;;;;;;;;;;;5116660;28;20135;-77
2022/07/09 09:30:21;;;;;;;;;;;;;;;;;;5098247;28;19922;-77
2022/07/09 09:32:59;;;;;;;;;;;;;;;;;;5116763;28;19916;-77
2022/07/09 09:35:34;;;;;;;;;;;;;;;;;;5114127;28;19912;-77
2022/07/09 09:37:59;;;;;;;;;;;;;;;;;;5115043;28;19918;-77
2022/07/09 09:40:24;;;;;;;;;;;;;;;;;;5115465;28;20274;-77
2022/07/09 09:42:49;;;;;;;;;;;;;;;;;;5114671;28;19941;-77
2022/07/09 09:45:15;;;;;;;;;;;;;;;;;;5114985;28;19911;-77
2022/07/09 09:47:45;;;;;;;;;;;;;;;;;;5116329;28;19920;-77
2022/07/09 09:50:13;;;;;;;;;;;;;;;;;;5114488;28;20022;-77
2022/07/09 09:52:38;;;;;;;;;;;;;;;;;;5114956;28;19920;-77
2022/07/09 09:55:04;;;;;;;;;;;;;;;;;;5114933;28;20283;-77
2022/07/09 09:57:29;;;;;;;;;;;;;;;;;;5114747;28;19919;-77
2022/07/09 09:59:54;;;;;;;;;;;;;;;;;;5115299;28;20387;-77
2022/07/09 10:02:20;;;;;;;;;;;;;;;;;;5114936;28;20102;-77
2022/07/09 10:04:45;;;;;;;;;;;;;;;;;;5114983;28;20280;-77
2022/07/09 10:07:11;;;;;;;;;;;;;;;;;;5114468;28;19965;-76
2022/07/09 10:09:37;;;;;;;;;;;;;;;;;;5114560;28;19961;-76
2022/07/09 10:12:02;;;;;;;;;;;;;;;;;;5115663;28;20014;-77
2022/07/09 10:14:32;;;;;;;;;;;;;;;;;;5115275;28;20222;-77
2022/07/09 10:17:18;;;;;;;;;;;;;;;;;;5115092;28;20417;-77
2022/07/09 10:19:57;;;;;;;;;;;;;;;;;;5113880;28;20366;-77
2022/07/09 10:22:22;;;;;;;;;;;;;;;;;;5116222;28;19923;-76
2022/07/09 10:24:50;;;;;;;;;;;;;;;;;;5115710;28;19912;-76
2022/07/09 10:27:16;;;;;;;;;;;;;;;;;;5114116;28;20436;-77
2022/07/09 10:29:56;;;;;;;;;;;;;;;;;;5115585;28;19958;-77
2022/07/09 10:32:28;;;;;;;;;;;;;;;;;;5115516;28;19915;-77
2022/07/09 10:34:54;;;;;;;;;;;;;;;;;;5113883;28;19943;-77
2022/07/09 10:37:29;;;;;;;;;;;;;;;;;;5115188;28;20262;-77
2022/07/09 10:39:54;;;;;;;;;;;;;;;;;;5114248;28;19912;-77
2022/07/09 10:42:20;;;;;;;;;;;;;;;;;;5114462;28;20371;-77
2022/07/09 10:44:45;;;;;;;;;;;;;;;;;;5114223;28;20006;-78
2022/07/09 10:47:11;;;;;;;;;;;;;;;;;;5114032;28;20378;-77
2022/07/09 10:49:36;;;;;;;;;;;;;;;;;;5116327;28;19920;-77
2022/07/09 10:52:02;;;;;;;;;;;;;;;;;;5114979;28;19927;-77
2022/07/09 10:54:27;;;;;;;;;;;;;;;;;;5115046;28;19920;-79
2022/07/09 10:56:53;;;;;;;;;;;;;;;;;;5114796;28;19920;-78
2022/07/09 10:59:19;;;;;;;;;;;;;;;;;;5096429;28;19919;-81
2022/07/09 11:01:44;;;;;;;;;;;;;;;;;;5096551;28;19965;-81
2022/07/09 11:04:11;;;;;;;;;;;;;;;;;;5114260;28;20014;-80
2022/07/09 11:06:46;;;;;;;;;;;;;;;;;;5113823;28;20295;-82
2022/07/09 11:09:15;;;;;;;;;;;;;;;;;;5113497;28;19912;-80
2022/07/09 11:11:44;;;;;;;;;;;;;;;;;;5096300;28;20440;-80
2022/07/09 11:14:13;;;;;;;;;;;;;;;;;;5096177;28;20279;-80
2022/07/09 11:16:38;;;;;;;;;;;;;;;;;;5114788;28;19998;-80
2022/07/09 11:19:13;;;;;;;;;;;;;;;;;;5113414;28;19950;-80
2022/07/09 11:21:38;;;;;;;;;;;;;;;;;;5113274;28;20350;-80
2022/07/09 11:24:11;;;;;;;;;;;;;;;;;;5113053;28;19927;-80
2022/07/09 11:26:37;;;;;;;;;;;;;;;;;;5096105;28;19911;-82
2022/07/09 11:29:02;;;;;;;;;;;;;;;;;;5095685;28;20423;-81
2022/07/09 11:31:28;;;;;;;;;;;;;;;;;;5113377;28;19923;-82
2022/07/09 11:34:11;;;;;;;;;;;;;;;;;;5112896;28;19912;-81
2022/07/09 11:36:37;;;;;;;;;;;;;;;;;;5098124;28;19915;-80
2022/07/09 11:39:02;;;;;;;;;;;;;;;;;;5098492;28;19911;-79
2022/07/09 11:41:28;;;;;;;;;;;;;;;;;;5114045;28;20119;-77
2022/07/09 11:43:53;;;;;;;;;;;;;;;;;;5112741;28;20378;-79
2022/07/09 11:46:19;;;;;;;;;;;;;;;;;;5095796;28;20387;-80
2022/07/09 11:48:53;;;;;;;;;;;;;;;;;;5096732;28;19916;-79
2022/07/09 11:51:30;;;;;;;;;;;;;;;;;;5112778;28;19931;-79
2022/07/09 11:53:55;;;;;;;;;;;;;;;;;;5112511;28;20355;-78
2022/07/09 11:56:21;;;;;;;;;;;;;;;;;;5114149;28;19924;-79
2022/07/09 11:58:49;;;;;;;;;;;;;;;;;;5095252;28;19942;-79
2022/07/09 12:01:15;;;;;;;;;;;;;;;;;;5112628;28;19923;-79
2022/07/09 12:03:45;;;;;;;;;;;;;;;;;;5095497;28;20370;-80
2022/07/09 12:06:11;;;;;;;;;;;;;;;;;;5112434;28;19965;-79
2022/07/09 12:08:36;;;;;;;;;;;;;;;;;;5095111;28;19916;-79
2022/07/09 12:11:01;;;;;;;;;;;;;;;;;;5113658;28;19926;-80
2022/07/09 12:13:27;;;;;;;;;;;;;;;;;;5113369;28;19916;-80
2022/07/09 12:15:52;;;;;;;;;;;;;;;;;;5113598;28;19957;-79
2022/07/09 12:18:17;;;;;;;;;;;;;;;;;;5113588;28;19978;-79
2022/07/09 12:20:42;;;;;;;;;;;;;;;;;;5118839;28;19920;-80
2022/07/09 12:23:08;;;;;;;;;;;;;;;;;;5123110;28;19969;-80
2022/07/09 12:25:33;;;;;;;;;;;;;;;;;;5095640;28;20049;-80
2022/07/09 12:27:58;;;;;;;;;;;;;;;;;;5113034;28;20293;-79
2022/07/09 12:30:24;;;;;;;;;;;;;;;;;;5113457;28;19916;-80
2022/07/09 12:32:49;;;;;;;;;;;;;;;;;;5113701;28;19954;-80
2022/07/09 12:35:15;;;;;;;;;;;;;;;;;;5095737;28;20286;-80
2022/07/09 12:37:40;;;;;;;;;;;;;;;;;;5112528;28;20014;-80
2022/07/09 12:40:06;;;;;;;;;;;;;;;;;;5112570;28;19912;-80
2022/07/09 12:42:32;;;;;;;;;;;;;;;;;;5095232;28;19912;-78
2022/07/09 12:44:57;;;;;;;;;;;;;;;;;;5112384;28;20334;-80
2022/07/09 12:47:23;;;;;;;;;;;;;;;;;;5112506;28;19919;-81
2022/07/09 12:49:48;;;;;;;;;;;;;;;;;;5111627;28;19923;-80
2022/07/09 12:52:13;;;;;;;;;;;;;;;;;;5112132;28;19919;-79
2022/07/09 12:54:39;;;;;;;;;;;;;;;;;;5112844;28;19931;-80
2022/07/09 12:57:04;;;;;;;;;;;;;;;;;;5113765;28;19916;-79
2022/07/09 12:59:30;;;;;;;;;;;;;;;;;;5113358;28;20340;-80
2022/07/09 13:01:55;;;;;;;;;;;;;;;;;;5094736;28;20349;-80
2022/07/09 13:04:20;;;;;;;;;;;;;;;;;;5094931;28;19922;-79
2022/07/09 13:06:45;;;;;;;;;;;;;;;;;;5112769;28;19926;-81
2022/07/09 13:09:11;;;;;;;;;;;;;;;;;;5112275;28;19916;-81
2022/07/09 13:11:37;;;;;;;;;;;;;;;;;;5116408;28;19920;-80
2022/07/09 13:14:02;;;;;;;;;;;;;;;;;;5115440;28;19941;-80
2022/07/09 13:16:27;;;;;;;;;;;;;;;;;;5115746;28;20262;-80
2022/07/09 13:18:53;;;;;;;;;;;;;;;;;;5116749;28;19951;-81
2022/07/09 13:21:19;;;;;;;;;;;;;;;;;;5116660;28;19964;-81
2022/07/09 13:23:44;;;;;;;;;;;;;;;;;;5116486;28;19916;-79
2022/07/09 13:26:09;;;;;;;;;;;;;;;;;;5115013;28;20358;-80
2022/07/09 13:28:35;;;;;;;;;;;;;;;;;;5116543;28;19923;-80
2022/07/09 13:31:00;;;;;;;;;;;;;;;;;;5115745;28;19927;-80
2022/07/09 13:33:25;;;;;;;;;;;;;;;;;;5116396;28;20010;-80
2022/07/09 13:35:50;;;;;;;;;;;;;;;;;;5116980;28;20282;-80
2022/07/09 13:38:16;;;;;;;;;;;;;;;;;;5115058;28;19967;-81
2022/07/09 13:40:41;;;;;;;;;;;;;;;;;;5115040;28;19965;-79
2022/07/09 13:43:06;;;;;;;;;;;;;;;;;;5115330;28;19911;-80
2022/07/09 13:45:31;;;;;;;;;;;;;;;;;;5116676;28;19916;-80
2022/07/09 13:47:57;;;;;;;;;;;;;;;;;;5105467;28;19911;-79
2022/07/09 13:50:22;;;;;;;;;;;;;;;;;;5116126;28;19920;-80
2022/07/09 13:52:48;;;;;;;;;;;;;;;;;;5114868;28;19926;-81
2022/07/09 13:55:13;;;;;;;;;;;;;;;;;;5117083;28;19916;-80
2022/07/09 13:57:38;;;;;;;;;;;;;;;;;;5098441;28;19926;-80
2022/07/09 14:00:05;;;;;;;;;;;;;;;;;;5116738;28;19916;-80
2022/07/09 14:02:32;;;;;;;;;;;;;;;;;;5116131;28;19916;-81
2022/07/09 14:04:57;;;;;;;;;;;;;;;;;;5115723;28;20402;-81
2022/07/09 14:07:23;;;;;;;;;;;;;;;;;;5115820;28;19916;-81
2022/07/09 14:09:48;;;;;;;;;;;;;;;;;;5117688;28;19938;-80
2022/07/09 14:12:14;;;;;;;;;;;;;;;;;;5116505;28;19915;-79
2022/07/09 14:14:41;;;;;;;;;;;;;;;;;;5099020;28;20425;-81
2022/07/09 14:17:07;;;;;;;;;;;;;;;;;;5098142;28;20011;-80
2022/07/09 14:19:32;;;;;;;;;;;;;;;;;;5114848;28;20341;-80
2022/07/09 14:21:58;;;;;;;;;;;;;;;;;;5115387;28;19924;-82
2022/07/09 14:24:26;;;;;;;;;;;;;;;;;;5118452;28;20011;-80
2022/07/09 14:26:51;;;;;;;;;;;;;;;;;;5116568;28;19923;-81
2022/07/09 14:29:17;;;;;;;;;;;;;;;;;;5098009;28;20296;-81
2022/07/09 14:31:42;;;;;;;;;;;;;;;;;;5115739;28;20058;-81
2022/07/09 14:34:07;;;;;;;;;;;;;;;;;;5114780;28;19918;-81
2022/07/09 14:36:32;;;;;;;;;;;;;;;;;;5115433;28;20306;-80
2022/07/09 14:38:58;;;;;;;;;;;;;;;;;;5114115;28;19912;-80
2022/07/09 14:41:23;;;;;;;;;;;;;;;;;;5096642;28;19918;-81
2022/07/09 14:43:49;;;;;;;;;;;;;;;;;;5114104;28;19916;-80
2022/07/09 14:46:14;;;;;;;;;;;;;;;;;;5116221;28;19922;-82
2022/07/09 14:48:40;;;;;;;;;;;;;;;;;;5115538;28;19915;-77
2022/07/09 14:51:06;;;;;;;;;;;;;;;;;;5115466;28;19920;-80
2022/07/09 14:53:31;;;;;;;;;;;;;;;;;;5096867;28;19966;-80
2022/07/09 14:55:57;;;;;;;;;;;;;;;;;;5113606;28;19969;-80
2022/07/09 14:58:22;;;;;;;;;;;;;;;;;;5115932;28;19935;-81
2022/07/09 15:00:47;;;;;;;;;;;;;;;;;;5096288;28;19919;-81
2022/07/09 15:03:12;;;;;;;;;;;;;;;;;;5113438;28;19915;-81
2022/07/09 15:05:38;;;;;;;;;;;;;;;;;;5113133;28;19922;-81
2022/07/09 15:08:03;;;;;;;;;;;;;;;;;;5113465;28;20305;-81
2022/07/09 15:10:29;;;;;;;;;;;;;;;;;;5113602;28;20014;-81
2022/07/09 15:12:54;;;;;;;;;;;;;;;;;;5117403;28;19930;-81
2022/07/09 15:15:19;;;;;;;;;;;;;;;;;;5118250;28;19916;-80
2022/07/09 15:17:45;;;;;;;;;;;;;;;;;;5096507;28;20273;-77
2022/07/09 15:20:10;;;;;;;;;;;;;;;;;;5096818;28;20057;-77
2022/07/09 15:22:35;;;;;;;;;;;;;;;;;;5113089;28;19943;-79
2022/07/09 15:25:04;;;;;;;;;;;;;;;;;;5106863;28;19943;-77
2022/07/09 15:27:32;;;;;;;;;;;;;;;;;;5093901;28;19916;-75
2022/07/09 15:29:58;;;;;;;;;;;;;;;;;;5075584;28;19912;-78
2022/07/09 15:32:24;;;;;;;;;;;;;;;;;;5093294;28;19926;-77
2022/07/09 15:34:49;;;;;;;;;;;;;;;;;;5093754;28;20282;-78
2022/07/09 15:37:14;;;;;;;;;;;;;;;;;;5093608;28;19916;-77
2022/07/09 15:39:39;;;;;;;;;;;;;;;;;;5092810;28;19919;-77
2022/07/09 15:42:05;;;;;;;;;;;;;;;;;;5105811;28;19919;-77
2022/07/09 15:44:30;;;;;;;;;;;;;;;;;;5113753;28;20025;-77
2022/07/09 15:46:56;;;;;;;;;;;;;;;;;;5112673;28;20054;-78
2022/07/09 15:49:21;;;;;;;;;;;;;;;;;;5113926;28;19972;-76
2022/07/09 15:51:47;;;;;;;;;;;;;;;;;;5114035;28;20445;-78
2022/07/09 15:54:15;;;;;;;;;;;;;;;;;;5111730;28;21276;-78
2022/07/09 15:56:40;;;;;;;;;;;;;;;;;;5112390;28;19924;-77
2022/07/09 15:59:05;;;;;;;;;;;;;;;;;;5113645;28;19916;-78
2022/07/09 16:01:31;;;;;;;;;;;;;;;;;;5112162;28;19923;-78
2022/07/09 16:03:57;;;;;;;;;;;;;;;;;;5112566;28;19935;-78
2022/07/09 16:06:22;;;;;;;;;;;;;;;;;;5112266;28;20362;-78
2022/07/09 16:08:47;;;;;;;;;;;;;;;;;;5114099;28;19943;-78
2022/07/09 16:13:57;;;;;;;;;;;;;;;;;;5112726;28;19964;-77
2022/07/09 16:16:22;;;;;;;;;;;;;;;;;;5112143;28;19919;-77
2022/07/09 16:18:47;;;;;;;;;;;;;;;;;;5113554;28;19916;-78
2022/07/09 16:21:12;;;;;;;;;;;;;;;;;;5112289;28;20405;-77
2022/07/09 16:23:38;;;;;;;;;;;;;;;;;;5112206;28;20265;-78
2022/07/09 16:26:03;;;;;;;;;;;;;;;;;;5112270;28;20330;-78
2022/07/09 16:28:28;;;;;;;;;;;;;;;;;;5112222;28;19916;-78
2022/07/09 16:30:53;;;;;;;;;;;;;;;;;;5113315;28;19924;-79
2022/07/09 16:33:19;;;;;;;;;;;;;;;;;;5113334;28;19923;-78
2022/07/09 16:35:44;;;;;;;;;;;;;;;;;;5113538;28;19923;-78
2022/07/09 16:38:09;;;;;;;;;;;;;;;;;;5113899;28;20254;-77
2022/07/09 16:40:35;;;;;;;;;;;;;;;;;;5115364;28;19916;-77